sensor_id;sensor_type;location;lat;lon;timestamp;P1;durP1;ratioP1;P2;durP2;ratioP2
62848;SDS011;48941;49.516;8.286;2024-03-22T00:01:42;13.98;;;9.80;;
62848;SDS011;48941;49.516;8.286;2024-03-22T00:04:11;15.70;;;9.45;;
62848;SDS011;48941;49.516;8.286;2024-03-22T00:06:37;18.75;;;10.32;;
62848;SDS011;48941;49.516;8.286;2024-03-22T00:09:04;12.75;;;8.80;;
62848;SDS011;48941;49.516;8.286;2024-03-22T00:11:30;15.13;;;10.07;;
62848;SDS011;48941;49.516;8.286;2024-03-22T00:13:57;15.23;;;9.75;;
62848;SDS011;48941;49.516;8.286;2024-03-22T00:16:23;17.25;;;9.50;;
62848;SDS011;48941;49.516;8.286;2024-03-22T00:18:50;12.68;;;7.95;;
62848;SDS011;48941;49.516;8.286;2024-03-22T00:21:17;12.88;;;8.57;;
62848;SDS011;48941;49.516;8.286;2024-03-22T00:23:44;15.18;;;8.70;;
62848;SDS011;48941;49.516;8.286;2024-03-22T00:26:10;16.55;;;9.57;;
62848;SDS011;48941;49.516;8.286;2024-03-22T00:28:37;15.35;;;8.75;;
62848;SDS011;48941;49.516;8.286;2024-03-22T00:31:03;11.57;;;7.72;;
62848;SDS011;48941;49.516;8.286;2024-03-22T00:33:30;13.13;;;7.65;;
62848;SDS011;48941;49.516;8.286;2024-03-22T00:35:56;16.80;;;7.63;;
62848;SDS011;48941;49.516;8.286;2024-03-22T00:38:25;11.00;;;7.55;;
62848;SDS011;48941;49.516;8.286;2024-03-22T00:40:51;10.90;;;7.15;;
62848;SDS011;48941;49.516;8.286;2024-03-22T00:43:17;11.18;;;7.75;;
62848;SDS011;48941;49.516;8.286;2024-03-22T00:45:43;14.30;;;8.02;;
62848;SDS011;48941;49.516;8.286;2024-03-22T00:48:10;12.80;;;7.85;;
62848;SDS011;48941;49.516;8.286;2024-03-22T00:50:36;11.77;;;7.95;;
62848;SDS011;48941;49.516;8.286;2024-03-22T00:53:03;12.20;;;7.82;;
62848;SDS011;48941;49.516;8.286;2024-03-22T00:55:32;14.23;;;7.72;;
62848;SDS011;48941;49.516;8.286;2024-03-22T00:57:58;14.18;;;8.07;;
62848;SDS011;48941;49.516;8.286;2024-03-22T01:00:24;13.85;;;7.25;;
62848;SDS011;48941;49.516;8.286;2024-03-22T01:02:51;13.52;;;8.10;;
62848;SDS011;48941;49.516;8.286;2024-03-22T01:05:17;10.45;;;7.50;;
62848;SDS011;48941;49.516;8.286;2024-03-22T01:07:44;11.77;;;7.70;;
62848;SDS011;48941;49.516;8.286;2024-03-22T01:10:10;11.95;;;7.68;;
62848;SDS011;48941;49.516;8.286;2024-03-22T01:12:39;14.48;;;8.10;;
62848;SDS011;48941;49.516;8.286;2024-03-22T01:15:05;14.10;;;7.38;;
62848;SDS011;48941;49.516;8.286;2024-03-22T01:17:33;11.32;;;7.45;;
62848;SDS011;48941;49.516;8.286;2024-03-22T01:19:59;12.30;;;7.32;;
62848;SDS011;48941;49.516;8.286;2024-03-22T01:22:25;8.98;;;7.05;;
62848;SDS011;48941;49.516;8.286;2024-03-22T01:24:51;9.88;;;6.93;;
62848;SDS011;48941;49.516;8.286;2024-03-22T01:27:18;11.88;;;7.90;;
62848;SDS011;48941;49.516;8.286;2024-03-22T01:29:45;11.20;;;7.60;;
62848;SDS011;48941;49.516;8.286;2024-03-22T01:32:12;10.55;;;7.88;;
62848;SDS011;48941;49.516;8.286;2024-03-22T01:34:38;8.85;;;7.22;;
62848;SDS011;48941;49.516;8.286;2024-03-22T01:37:05;11.18;;;6.55;;
62848;SDS011;48941;49.516;8.286;2024-03-22T01:39:31;9.75;;;6.80;;
62848;SDS011;48941;49.516;8.286;2024-03-22T01:41:58;8.88;;;6.45;;
62848;SDS011;48941;49.516;8.286;2024-03-22T01:44:26;10.20;;;7.50;;
62848;SDS011;48941;49.516;8.286;2024-03-22T01:46:55;9.68;;;6.85;;
62848;SDS011;48941;49.516;8.286;2024-03-22T01:49:21;8.93;;;6.68;;
62848;SDS011;48941;49.516;8.286;2024-03-22T01:51:51;9.88;;;6.30;;
62848;SDS011;48941;49.516;8.286;2024-03-22T01:54:18;9.93;;;6.20;;
62848;SDS011;48941;49.516;8.286;2024-03-22T01:56:46;9.82;;;6.40;;
62848;SDS011;48941;49.516;8.286;2024-03-22T01:59:12;9.27;;;5.68;;
62848;SDS011;48941;49.516;8.286;2024-03-22T02:01:39;8.52;;;5.82;;
62848;SDS011;48941;49.516;8.286;2024-03-22T02:04:07;9.45;;;5.90;;
62848;SDS011;48941;49.516;8.286;2024-03-22T02:06:34;9.05;;;5.70;;
62848;SDS011;48941;49.516;8.286;2024-03-22T02:09:00;9.43;;;5.80;;
62848;SDS011;48941;49.516;8.286;2024-03-22T02:11:27;9.63;;;5.63;;
62848;SDS011;48941;49.516;8.286;2024-03-22T02:13:56;12.05;;;6.13;;
62848;SDS011;48941;49.516;8.286;2024-03-22T02:16:23;9.93;;;6.45;;
62848;SDS011;48941;49.516;8.286;2024-03-22T02:18:49;9.20;;;6.25;;
62848;SDS011;48941;49.516;8.286;2024-03-22T02:21:17;10.05;;;6.70;;
62848;SDS011;48941;49.516;8.286;2024-03-22T02:23:44;9.48;;;6.10;;
62848;SDS011;48941;49.516;8.286;2024-03-22T02:26:11;11.85;;;6.32;;
62848;SDS011;48941;49.516;8.286;2024-03-22T02:28:37;11.23;;;7.30;;
62848;SDS011;48941;49.516;8.286;2024-03-22T02:31:04;12.60;;;6.93;;
62848;SDS011;48941;49.516;8.286;2024-03-22T02:33:30;13.25;;;6.93;;
62848;SDS011;48941;49.516;8.286;2024-03-22T02:35:57;10.15;;;6.97;;
62848;SDS011;48941;49.516;8.286;2024-03-22T02:38:23;9.80;;;6.88;;
62848;SDS011;48941;49.516;8.286;2024-03-22T02:40:52;10.48;;;6.65;;
62848;SDS011;48941;49.516;8.286;2024-03-22T02:43:18;9.65;;;5.78;;
62848;SDS011;48941;49.516;8.286;2024-03-22T02:45:46;9.52;;;6.38;;
62848;SDS011;48941;49.516;8.286;2024-03-22T02:48:12;7.38;;;5.72;;
62848;SDS011;48941;49.516;8.286;2024-03-22T02:50:39;10.60;;;6.47;;
62848;SDS011;48941;49.516;8.286;2024-03-22T02:53:05;10.23;;;6.25;;
62848;SDS011;48941;49.516;8.286;2024-03-22T02:55:35;9.32;;;6.25;;
62848;SDS011;48941;49.516;8.286;2024-03-22T02:58:03;10.23;;;6.78;;
62848;SDS011;48941;49.516;8.286;2024-03-22T03:00:30;13.35;;;5.93;;
62848;SDS011;48941;49.516;8.286;2024-03-22T03:02:56;10.18;;;6.40;;
62848;SDS011;48941;49.516;8.286;2024-03-22T03:05:23;10.07;;;6.35;;
62848;SDS011;48941;49.516;8.286;2024-03-22T03:07:49;9.18;;;6.55;;
62848;SDS011;48941;49.516;8.286;2024-03-22T03:10:16;9.30;;;6.20;;
62848;SDS011;48941;49.516;8.286;2024-03-22T03:12:42;8.48;;;5.95;;
62848;SDS011;48941;49.516;8.286;2024-03-22T03:15:10;7.50;;;5.70;;
62848;SDS011;48941;49.516;8.286;2024-03-22T03:17:36;9.73;;;6.32;;
62848;SDS011;48941;49.516;8.286;2024-03-22T03:20:03;9.70;;;6.15;;
62848;SDS011;48941;49.516;8.286;2024-03-22T03:22:33;8.48;;;5.85;;
62848;SDS011;48941;49.516;8.286;2024-03-22T03:25:00;9.68;;;6.25;;
62848;SDS011;48941;49.516;8.286;2024-03-22T03:27:26;8.20;;;5.50;;
62848;SDS011;48941;49.516;8.286;2024-03-22T03:29:53;9.38;;;5.95;;
62848;SDS011;48941;49.516;8.286;2024-03-22T03:32:20;9.65;;;5.93;;
62848;SDS011;48941;49.516;8.286;2024-03-22T03:34:46;8.48;;;6.03;;
62848;SDS011;48941;49.516;8.286;2024-03-22T03:37:12;11.25;;;6.10;;
62848;SDS011;48941;49.516;8.286;2024-03-22T03:39:39;9.73;;;5.80;;
62848;SDS011;48941;49.516;8.286;2024-03-22T03:42:05;10.35;;;6.10;;
62848;SDS011;48941;49.516;8.286;2024-03-22T03:44:32;8.57;;;6.45;;
62848;SDS011;48941;49.516;8.286;2024-03-22T03:46:59;9.80;;;6.05;;
62848;SDS011;48941;49.516;8.286;2024-03-22T03:49:27;7.07;;;5.88;;
62848;SDS011;48941;49.516;8.286;2024-03-22T03:51:53;8.15;;;5.82;;
62848;SDS011;48941;49.516;8.286;2024-03-22T03:54:20;9.30;;;5.53;;
62848;SDS011;48941;49.516;8.286;2024-03-22T03:56:46;10.35;;;5.80;;
62848;SDS011;48941;49.516;8.286;2024-03-22T03:59:12;9.23;;;6.18;;
62848;SDS011;48941;49.516;8.286;2024-03-22T04:01:38;8.65;;;5.68;;
62848;SDS011;48941;49.516;8.286;2024-03-22T04:04:05;6.78;;;4.75;;
62848;SDS011;48941;49.516;8.286;2024-03-22T04:06:32;9.02;;;5.75;;
62848;SDS011;48941;49.516;8.286;2024-03-22T04:09:01;9.00;;;5.05;;
62848;SDS011;48941;49.516;8.286;2024-03-22T04:11:28;8.45;;;5.20;;
62848;SDS011;48941;49.516;8.286;2024-03-22T04:13:54;9.27;;;5.45;;
62848;SDS011;48941;49.516;8.286;2024-03-22T04:16:20;7.85;;;5.50;;
62848;SDS011;48941;49.516;8.286;2024-03-22T04:18:47;9.98;;;5.03;;
62848;SDS011;48941;49.516;8.286;2024-03-22T04:21:13;8.57;;;5.22;;
62848;SDS011;48941;49.516;8.286;2024-03-22T04:23:41;8.85;;;5.32;;
62848;SDS011;48941;49.516;8.286;2024-03-22T04:26:07;9.18;;;5.47;;
62848;SDS011;48941;49.516;8.286;2024-03-22T04:28:34;7.75;;;5.47;;
62848;SDS011;48941;49.516;8.286;2024-03-22T04:31:00;9.00;;;6.18;;
62848;SDS011;48941;49.516;8.286;2024-03-22T04:33:28;8.57;;;5.47;;
62848;SDS011;48941;49.516;8.286;2024-03-22T04:35:55;9.95;;;6.57;;
62848;SDS011;48941;49.516;8.286;2024-03-22T04:38:22;12.88;;;6.93;;
62848;SDS011;48941;49.516;8.286;2024-03-22T04:40:51;11.82;;;7.18;;
62848;SDS011;48941;49.516;8.286;2024-03-22T04:43:18;11.93;;;7.20;;
62848;SDS011;48941;49.516;8.286;2024-03-22T04:45:46;12.63;;;7.43;;
62848;SDS011;48941;49.516;8.286;2024-03-22T04:48:13;13.38;;;6.93;;
62848;SDS011;48941;49.516;8.286;2024-03-22T04:50:40;13.65;;;7.20;;
62848;SDS011;48941;49.516;8.286;2024-03-22T04:53:06;13.55;;;7.47;;
62848;SDS011;48941;49.516;8.286;2024-03-22T04:55:33;12.80;;;7.05;;
62848;SDS011;48941;49.516;8.286;2024-03-22T04:58:00;11.57;;;7.72;;
62848;SDS011;48941;49.516;8.286;2024-03-22T05:00:28;13.25;;;7.82;;
62848;SDS011;48941;49.516;8.286;2024-03-22T05:02:54;13.43;;;7.43;;
62848;SDS011;48941;49.516;8.286;2024-03-22T05:05:20;14.98;;;7.97;;
62848;SDS011;48941;49.516;8.286;2024-03-22T05:07:47;12.75;;;8.30;;
62848;SDS011;48941;49.516;8.286;2024-03-22T05:10:14;14.75;;;8.27;;
62848;SDS011;48941;49.516;8.286;2024-03-22T05:12:42;15.93;;;7.63;;
62848;SDS011;48941;49.516;8.286;2024-03-22T05:15:10;11.30;;;8.07;;
62848;SDS011;48941;49.516;8.286;2024-03-22T05:17:36;14.13;;;8.35;;
62848;SDS011;48941;49.516;8.286;2024-03-22T05:20:05;11.88;;;7.97;;
62848;SDS011;48941;49.516;8.286;2024-03-22T05:22:34;14.25;;;8.30;;
62848;SDS011;48941;49.516;8.286;2024-03-22T05:25:01;15.05;;;8.45;;
62848;SDS011;48941;49.516;8.286;2024-03-22T05:27:27;16.95;;;7.55;;
62848;SDS011;48941;49.516;8.286;2024-03-22T05:29:53;16.58;;;8.02;;
62848;SDS011;48941;49.516;8.286;2024-03-22T05:32:20;12.90;;;8.00;;
62848;SDS011;48941;49.516;8.286;2024-03-22T05:34:47;11.98;;;7.50;;
62848;SDS011;48941;49.516;8.286;2024-03-22T05:37:13;13.07;;;7.18;;
62848;SDS011;48941;49.516;8.286;2024-03-22T05:39:40;14.88;;;6.47;;
62848;SDS011;48941;49.516;8.286;2024-03-22T05:42:06;12.25;;;7.10;;
62848;SDS011;48941;49.516;8.286;2024-03-22T05:44:33;11.60;;;6.68;;
62848;SDS011;48941;49.516;8.286;2024-03-22T05:46:59;9.07;;;6.13;;
62848;SDS011;48941;49.516;8.286;2024-03-22T05:49:27;11.18;;;6.60;;
62848;SDS011;48941;49.516;8.286;2024-03-22T05:51:53;12.70;;;7.28;;
62848;SDS011;48941;49.516;8.286;2024-03-22T05:54:20;13.40;;;7.93;;
62848;SDS011;48941;49.516;8.286;2024-03-22T05:56:46;16.02;;;9.05;;
62848;SDS011;48941;49.516;8.286;2024-03-22T05:59:13;16.20;;;10.75;;
62848;SDS011;48941;49.516;8.286;2024-03-22T06:01:39;14.05;;;9.75;;
62848;SDS011;48941;49.516;8.286;2024-03-22T06:04:06;22.73;;;11.45;;
62848;SDS011;48941;49.516;8.286;2024-03-22T06:06:33;20.55;;;11.32;;
62848;SDS011;48941;49.516;8.286;2024-03-22T06:09:00;23.65;;;10.60;;
62848;SDS011;48941;49.516;8.286;2024-03-22T06:11:28;16.02;;;9.27;;
62848;SDS011;48941;49.516;8.286;2024-03-22T06:13:56;12.77;;;8.40;;
62848;SDS011;48941;49.516;8.286;2024-03-22T06:16:22;14.73;;;8.40;;
62848;SDS011;48941;49.516;8.286;2024-03-22T06:18:49;12.30;;;7.88;;
62848;SDS011;48941;49.516;8.286;2024-03-22T06:21:15;16.33;;;7.88;;
62848;SDS011;48941;49.516;8.286;2024-03-22T06:23:49;12.60;;;7.32;;
62848;SDS011;48941;49.516;8.286;2024-03-22T06:26:15;12.38;;;7.40;;
62848;SDS011;48941;49.516;8.286;2024-03-22T06:28:41;14.55;;;7.32;;
62848;SDS011;48941;49.516;8.286;2024-03-22T06:31:07;11.38;;;6.68;;
62848;SDS011;48941;49.516;8.286;2024-03-22T06:33:34;10.85;;;6.80;;
62848;SDS011;48941;49.516;8.286;2024-03-22T06:36:00;11.82;;;7.50;;
62848;SDS011;48941;49.516;8.286;2024-03-22T06:38:28;15.63;;;7.30;;
62848;SDS011;48941;49.516;8.286;2024-03-22T06:40:55;10.80;;;6.88;;
62848;SDS011;48941;49.516;8.286;2024-03-22T06:43:22;32.25;;;14.95;;
62848;SDS011;48941;49.516;8.286;2024-03-22T06:45:48;23.33;;;11.57;;
62848;SDS011;48941;49.516;8.286;2024-03-22T06:48:15;18.05;;;10.45;;
62848;SDS011;48941;49.516;8.286;2024-03-22T06:50:41;14.52;;;8.38;;
62848;SDS011;48941;49.516;8.286;2024-03-22T06:53:08;13.95;;;8.80;;
62848;SDS011;48941;49.516;8.286;2024-03-22T06:55:35;13.80;;;8.32;;
62848;SDS011;48941;49.516;8.286;2024-03-22T06:58:03;13.32;;;8.43;;
62848;SDS011;48941;49.516;8.286;2024-03-22T07:00:29;15.23;;;9.38;;
62848;SDS011;48941;49.516;8.286;2024-03-22T07:02:59;11.13;;;7.80;;
62848;SDS011;48941;49.516;8.286;2024-03-22T07:05:27;13.68;;;8.50;;
62848;SDS011;48941;49.516;8.286;2024-03-22T07:07:55;12.70;;;8.00;;
62848;SDS011;48941;49.516;8.286;2024-03-22T07:10:23;15.60;;;7.97;;
62848;SDS011;48941;49.516;8.286;2024-03-22T07:12:53;11.48;;;8.25;;
62848;SDS011;48941;49.516;8.286;2024-03-22T07:15:22;15.05;;;9.65;;
62848;SDS011;48941;49.516;8.286;2024-03-22T07:17:51;13.55;;;8.48;;
62848;SDS011;48941;49.516;8.286;2024-03-22T07:20:17;16.00;;;8.60;;
62848;SDS011;48941;49.516;8.286;2024-03-22T07:22:44;16.77;;;8.45;;
62848;SDS011;48941;49.516;8.286;2024-03-22T07:25:10;15.82;;;8.57;;
62848;SDS011;48941;49.516;8.286;2024-03-22T07:27:37;15.88;;;7.93;;
62848;SDS011;48941;49.516;8.286;2024-03-22T07:30:04;13.30;;;7.63;;
62848;SDS011;48941;49.516;8.286;2024-03-22T07:32:33;11.02;;;8.32;;
62848;SDS011;48941;49.516;8.286;2024-03-22T07:34:59;24.75;;;10.55;;
62848;SDS011;48941;49.516;8.286;2024-03-22T07:37:25;15.32;;;9.13;;
62848;SDS011;48941;49.516;8.286;2024-03-22T07:39:51;15.73;;;8.05;;
62848;SDS011;48941;49.516;8.286;2024-03-22T07:42:18;12.55;;;8.10;;
62848;SDS011;48941;49.516;8.286;2024-03-22T07:44:44;13.20;;;8.15;;
62848;SDS011;48941;49.516;8.286;2024-03-22T07:47:10;13.35;;;8.30;;
62848;SDS011;48941;49.516;8.286;2024-03-22T07:49:38;14.98;;;7.55;;
62848;SDS011;48941;49.516;8.286;2024-03-22T07:52:05;19.92;;;8.00;;
62848;SDS011;48941;49.516;8.286;2024-03-22T07:54:31;14.40;;;7.22;;
62848;SDS011;48941;49.516;8.286;2024-03-22T07:56:58;10.77;;;7.68;;
62848;SDS011;48941;49.516;8.286;2024-03-22T07:59:24;14.48;;;7.82;;
62848;SDS011;48941;49.516;8.286;2024-03-22T08:01:51;14.57;;;7.90;;
62848;SDS011;48941;49.516;8.286;2024-03-22T08:04:17;12.55;;;7.88;;
62848;SDS011;48941;49.516;8.286;2024-03-22T08:06:45;14.13;;;7.97;;
62848;SDS011;48941;49.516;8.286;2024-03-22T08:09:11;12.70;;;7.63;;
62848;SDS011;48941;49.516;8.286;2024-03-22T08:11:38;16.20;;;8.10;;
62848;SDS011;48941;49.516;8.286;2024-03-22T08:14:04;11.60;;;7.57;;
62848;SDS011;48941;49.516;8.286;2024-03-22T08:16:31;11.98;;;7.68;;
62848;SDS011;48941;49.516;8.286;2024-03-22T08:18:57;18.98;;;8.15;;
62848;SDS011;48941;49.516;8.286;2024-03-22T08:21:24;13.90;;;7.35;;
62848;SDS011;48941;49.516;8.286;2024-03-22T08:23:51;20.48;;;8.18;;
62848;SDS011;48941;49.516;8.286;2024-03-22T08:26:18;15.57;;;8.48;;
62848;SDS011;48941;49.516;8.286;2024-03-22T08:28:44;13.80;;;8.02;;
62848;SDS011;48941;49.516;8.286;2024-03-22T08:31:12;14.13;;;8.02;;
62848;SDS011;48941;49.516;8.286;2024-03-22T08:33:38;14.38;;;8.40;;
62848;SDS011;48941;49.516;8.286;2024-03-22T08:36:05;15.48;;;8.30;;
62848;SDS011;48941;49.516;8.286;2024-03-22T08:38:31;17.58;;;8.55;;
62848;SDS011;48941;49.516;8.286;2024-03-22T08:40:59;16.15;;;8.63;;
62848;SDS011;48941;49.516;8.286;2024-03-22T08:43:25;12.77;;;8.07;;
62848;SDS011;48941;49.516;8.286;2024-03-22T08:45:54;11.65;;;8.23;;
62848;SDS011;48941;49.516;8.286;2024-03-22T08:48:21;13.90;;;8.80;;
62848;SDS011;48941;49.516;8.286;2024-03-22T08:50:47;12.90;;;9.30;;
62848;SDS011;48941;49.516;8.286;2024-03-22T08:53:13;13.77;;;8.50;;
62848;SDS011;48941;49.516;8.286;2024-03-22T08:55:45;15.68;;;7.47;;
62848;SDS011;48941;49.516;8.286;2024-03-22T08:58:12;10.82;;;7.68;;
62848;SDS011;48941;49.516;8.286;2024-03-22T09:00:39;15.10;;;7.90;;
62848;SDS011;48941;49.516;8.286;2024-03-22T09:03:05;20.52;;;7.40;;
62848;SDS011;48941;49.516;8.286;2024-03-22T09:05:32;12.75;;;7.63;;
62848;SDS011;48941;49.516;8.286;2024-03-22T09:07:58;15.05;;;8.38;;
62848;SDS011;48941;49.516;8.286;2024-03-22T09:10:26;12.25;;;7.40;;
62848;SDS011;48941;49.516;8.286;2024-03-22T09:12:52;10.48;;;6.53;;
62848;SDS011;48941;49.516;8.286;2024-03-22T09:15:20;9.02;;;6.68;;
62848;SDS011;48941;49.516;8.286;2024-03-22T09:17:46;9.48;;;6.50;;
62848;SDS011;48941;49.516;8.286;2024-03-22T09:20:13;11.48;;;7.05;;
62848;SDS011;48941;49.516;8.286;2024-03-22T09:22:39;15.65;;;7.03;;
62848;SDS011;48941;49.516;8.286;2024-03-22T09:25:06;12.40;;;6.57;;
62848;SDS011;48941;49.516;8.286;2024-03-22T09:27:33;13.55;;;6.47;;
62848;SDS011;48941;49.516;8.286;2024-03-22T09:29:59;19.15;;;7.15;;
62848;SDS011;48941;49.516;8.286;2024-03-22T09:32:28;15.00;;;6.35;;
62848;SDS011;48941;49.516;8.286;2024-03-22T09:34:54;12.98;;;6.82;;
62848;SDS011;48941;49.516;8.286;2024-03-22T09:37:20;11.18;;;6.63;;
62848;SDS011;48941;49.516;8.286;2024-03-22T09:39:47;10.02;;;6.97;;
62848;SDS011;48941;49.516;8.286;2024-03-22T09:42:15;12.02;;;6.10;;
62848;SDS011;48941;49.516;8.286;2024-03-22T09:44:44;8.98;;;5.57;;
62848;SDS011;48941;49.516;8.286;2024-03-22T09:47:14;8.27;;;5.80;;
62848;SDS011;48941;49.516;8.286;2024-03-22T09:49:43;7.78;;;5.50;;
62848;SDS011;48941;49.516;8.286;2024-03-22T09:52:12;8.10;;;5.97;;
62848;SDS011;48941;49.516;8.286;2024-03-22T09:54:40;11.07;;;5.50;;
62848;SDS011;48941;49.516;8.286;2024-03-22T09:57:07;10.20;;;5.63;;
62848;SDS011;48941;49.516;8.286;2024-03-22T09:59:37;9.55;;;5.20;;
62848;SDS011;48941;49.516;8.286;2024-03-22T10:02:03;12.65;;;5.47;;
62848;SDS011;48941;49.516;8.286;2024-03-22T10:04:30;10.15;;;5.70;;
62848;SDS011;48941;49.516;8.286;2024-03-22T10:06:57;10.10;;;5.93;;
62848;SDS011;48941;49.516;8.286;2024-03-22T10:09:28;10.52;;;4.82;;
62848;SDS011;48941;49.516;8.286;2024-03-22T10:11:55;6.15;;;4.78;;
62848;SDS011;48941;49.516;8.286;2024-03-22T10:14:22;9.50;;;5.63;;
62848;SDS011;48941;49.516;8.286;2024-03-22T10:16:50;11.88;;;5.55;;
62848;SDS011;48941;49.516;8.286;2024-03-22T10:19:19;8.23;;;5.43;;
62848;SDS011;48941;49.516;8.286;2024-03-22T10:21:46;7.90;;;4.80;;
62848;SDS011;48941;49.516;8.286;2024-03-22T10:24:15;10.48;;;5.32;;
62848;SDS011;48941;49.516;8.286;2024-03-22T10:26:41;6.90;;;4.70;;
62848;SDS011;48941;49.516;8.286;2024-03-22T10:29:08;8.20;;;4.63;;
62848;SDS011;48941;49.516;8.286;2024-03-22T10:31:35;8.82;;;4.88;;
62848;SDS011;48941;49.516;8.286;2024-03-22T10:34:02;10.30;;;4.82;;
62848;SDS011;48941;49.516;8.286;2024-03-22T10:36:29;12.00;;;5.22;;
62848;SDS011;48941;49.516;8.286;2024-03-22T10:38:58;10.90;;;4.72;;
62848;SDS011;48941;49.516;8.286;2024-03-22T10:41:27;8.70;;;4.68;;
62848;SDS011;48941;49.516;8.286;2024-03-22T10:43:54;9.65;;;5.03;;
62848;SDS011;48941;49.516;8.286;2024-03-22T10:46:20;11.50;;;4.65;;
62848;SDS011;48941;49.516;8.286;2024-03-22T10:48:47;10.27;;;5.00;;
62848;SDS011;48941;49.516;8.286;2024-03-22T10:51:14;9.82;;;5.10;;
62848;SDS011;48941;49.516;8.286;2024-03-22T10:53:43;8.55;;;4.85;;
62848;SDS011;48941;49.516;8.286;2024-03-22T10:56:09;7.65;;;4.28;;
62848;SDS011;48941;49.516;8.286;2024-03-22T10:58:40;8.73;;;5.25;;
62848;SDS011;48941;49.516;8.286;2024-03-22T11:01:21;8.88;;;5.32;;
62848;SDS011;48941;49.516;8.286;2024-03-22T11:03:48;9.88;;;4.80;;
62848;SDS011;48941;49.516;8.286;2024-03-22T11:06:17;9.68;;;5.18;;
62848;SDS011;48941;49.516;8.286;2024-03-22T11:08:49;8.13;;;4.38;;
62848;SDS011;48941;49.516;8.286;2024-03-22T11:11:17;8.48;;;3.97;;
62848;SDS011;48941;49.516;8.286;2024-03-22T11:13:46;6.78;;;4.25;;
62848;SDS011;48941;49.516;8.286;2024-03-22T11:16:13;7.10;;;4.07;;
62848;SDS011;48941;49.516;8.286;2024-03-22T11:18:41;8.75;;;4.00;;
62848;SDS011;48941;49.516;8.286;2024-03-22T11:21:07;10.55;;;4.15;;
62848;SDS011;48941;49.516;8.286;2024-03-22T11:23:34;8.70;;;4.50;;
62848;SDS011;48941;49.516;8.286;2024-03-22T11:26:01;6.75;;;4.22;;
62848;SDS011;48941;49.516;8.286;2024-03-22T11:28:29;6.90;;;4.15;;
62848;SDS011;48941;49.516;8.286;2024-03-22T11:30:56;7.07;;;4.28;;
62848;SDS011;48941;49.516;8.286;2024-03-22T11:33:23;6.05;;;4.18;;
62848;SDS011;48941;49.516;8.286;2024-03-22T11:35:49;13.60;;;4.15;;
62848;SDS011;48941;49.516;8.286;2024-03-22T11:38:16;7.80;;;3.83;;
62848;SDS011;48941;49.516;8.286;2024-03-22T11:40:42;5.95;;;3.80;;
62848;SDS011;48941;49.516;8.286;2024-03-22T11:43:10;5.88;;;3.60;;
62848;SDS011;48941;49.516;8.286;2024-03-22T11:45:40;8.77;;;3.88;;
62848;SDS011;48941;49.516;8.286;2024-03-22T11:48:10;7.88;;;4.03;;
62848;SDS011;48941;49.516;8.286;2024-03-22T11:50:37;6.95;;;4.00;;
62848;SDS011;48941;49.516;8.286;2024-03-22T11:53:04;6.85;;;3.88;;
62848;SDS011;48941;49.516;8.286;2024-03-22T11:55:31;6.07;;;3.83;;
62848;SDS011;48941;49.516;8.286;2024-03-22T11:57:57;7.45;;;3.60;;
62848;SDS011;48941;49.516;8.286;2024-03-22T12:00:24;4.90;;;3.95;;
62848;SDS011;48941;49.516;8.286;2024-03-22T12:02:51;7.25;;;3.92;;
62848;SDS011;48941;49.516;8.286;2024-03-22T12:05:20;5.93;;;3.70;;
62848;SDS011;48941;49.516;8.286;2024-03-22T12:07:46;6.43;;;4.15;;
62848;SDS011;48941;49.516;8.286;2024-03-22T12:10:13;7.53;;;4.65;;
62848;SDS011;48941;49.516;8.286;2024-03-22T12:12:39;10.63;;;3.85;;
62848;SDS011;48941;49.516;8.286;2024-03-22T12:15:07;6.50;;;4.10;;
62848;SDS011;48941;49.516;8.286;2024-03-22T12:17:33;9.02;;;3.97;;
62848;SDS011;48941;49.516;8.286;2024-03-22T12:20:02;5.28;;;3.65;;
62848;SDS011;48941;49.516;8.286;2024-03-22T12:22:30;5.65;;;3.35;;
62848;SDS011;48941;49.516;8.286;2024-03-22T12:24:58;8.05;;;3.80;;
62848;SDS011;48941;49.516;8.286;2024-03-22T12:27:24;8.77;;;3.80;;
62848;SDS011;48941;49.516;8.286;2024-03-22T12:29:51;6.18;;;3.70;;
62848;SDS011;48941;49.516;8.286;2024-03-22T12:32:17;7.10;;;4.00;;
62848;SDS011;48941;49.516;8.286;2024-03-22T12:34:45;5.75;;;3.53;;
62848;SDS011;48941;49.516;8.286;2024-03-22T12:37:11;6.63;;;3.60;;
62848;SDS011;48941;49.516;8.286;2024-03-22T12:39:39;4.47;;;2.97;;
62848;SDS011;48941;49.516;8.286;2024-03-22T12:42:05;6.30;;;3.67;;
62848;SDS011;48941;49.516;8.286;2024-03-22T12:44:32;6.25;;;4.13;;
62848;SDS011;48941;49.516;8.286;2024-03-22T12:46:58;6.45;;;3.90;;
62848;SDS011;48941;49.516;8.286;2024-03-22T12:49:25;6.38;;;3.80;;
62848;SDS011;48941;49.516;8.286;2024-03-22T12:51:51;5.65;;;3.50;;
62848;SDS011;48941;49.516;8.286;2024-03-22T12:54:18;6.90;;;4.07;;
62848;SDS011;48941;49.516;8.286;2024-03-22T12:56:46;11.75;;;4.47;;
62848;SDS011;48941;49.516;8.286;2024-03-22T12:59:13;10.02;;;4.03;;
62848;SDS011;48941;49.516;8.286;2024-03-22T13:01:39;6.20;;;4.18;;
62848;SDS011;48941;49.516;8.286;2024-03-22T13:04:06;5.43;;;3.95;;
62848;SDS011;48941;49.516;8.286;2024-03-22T13:06:32;7.22;;;4.63;;
62848;SDS011;48941;49.516;8.286;2024-03-22T13:09:00;5.57;;;3.88;;
62848;SDS011;48941;49.516;8.286;2024-03-22T13:11:26;4.88;;;3.50;;
62848;SDS011;48941;49.516;8.286;2024-03-22T13:13:54;7.40;;;3.67;;
62848;SDS011;48941;49.516;8.286;2024-03-22T13:16:20;6.43;;;3.55;;
62848;SDS011;48941;49.516;8.286;2024-03-22T13:18:48;9.23;;;4.15;;
62848;SDS011;48941;49.516;8.286;2024-03-22T13:21:14;7.25;;;4.07;;
62848;SDS011;48941;49.516;8.286;2024-03-22T13:23:41;6.55;;;3.97;;
62848;SDS011;48941;49.516;8.286;2024-03-22T13:26:07;6.30;;;4.07;;
62848;SDS011;48941;49.516;8.286;2024-03-22T13:28:34;5.80;;;3.92;;
62848;SDS011;48941;49.516;8.286;2024-03-22T13:31:01;7.05;;;4.10;;
62848;SDS011;48941;49.516;8.286;2024-03-22T13:33:31;8.93;;;4.43;;
62848;SDS011;48941;49.516;8.286;2024-03-22T13:35:58;11.27;;;4.60;;
62848;SDS011;48941;49.516;8.286;2024-03-22T13:38:25;9.43;;;4.18;;
62848;SDS011;48941;49.516;8.286;2024-03-22T13:40:55;8.95;;;5.22;;
62848;SDS011;48941;49.516;8.286;2024-03-22T13:43:22;8.43;;;4.68;;
62848;SDS011;48941;49.516;8.286;2024-03-22T13:45:50;8.63;;;4.80;;
62848;SDS011;48941;49.516;8.286;2024-03-22T13:48:21;10.65;;;5.35;;
62848;SDS011;48941;49.516;8.286;2024-03-22T13:50:49;9.25;;;5.75;;
62848;SDS011;48941;49.516;8.286;2024-03-22T13:53:17;7.60;;;4.55;;
62848;SDS011;48941;49.516;8.286;2024-03-22T13:55:43;10.07;;;4.88;;
62848;SDS011;48941;49.516;8.286;2024-03-22T13:58:11;10.18;;;5.00;;
62848;SDS011;48941;49.516;8.286;2024-03-22T14:00:37;7.53;;;4.55;;
62848;SDS011;48941;49.516;8.286;2024-03-22T14:03:05;9.77;;;4.40;;
62848;SDS011;48941;49.516;8.286;2024-03-22T14:05:32;6.45;;;4.43;;
62848;SDS011;48941;49.516;8.286;2024-03-22T14:07:59;11.95;;;5.07;;
62848;SDS011;48941;49.516;8.286;2024-03-22T14:10:25;11.95;;;5.20;;
62848;SDS011;48941;49.516;8.286;2024-03-22T14:12:55;14.15;;;5.68;;
62848;SDS011;48941;49.516;8.286;2024-03-22T14:15:21;12.07;;;7.63;;
62848;SDS011;48941;49.516;8.286;2024-03-22T14:17:50;11.95;;;7.60;;
62848;SDS011;48941;49.516;8.286;2024-03-22T14:20:16;12.10;;;7.97;;
62848;SDS011;48941;49.516;8.286;2024-03-22T14:22:45;16.50;;;9.05;;
62848;SDS011;48941;49.516;8.286;2024-03-22T14:25:13;15.55;;;8.57;;
62848;SDS011;48941;49.516;8.286;2024-03-22T14:27:40;16.63;;;8.90;;
62848;SDS011;48941;49.516;8.286;2024-03-22T14:30:10;15.18;;;8.30;;
62848;SDS011;48941;49.516;8.286;2024-03-22T14:32:38;11.07;;;6.75;;
62848;SDS011;48941;49.516;8.286;2024-03-22T14:35:06;13.57;;;7.75;;
62848;SDS011;48941;49.516;8.286;2024-03-22T14:37:34;13.65;;;7.38;;
62848;SDS011;48941;49.516;8.286;2024-03-22T14:40:01;12.63;;;7.47;;